sensor_id;sensor_type;location;lat;lon;timestamp;temperature;humidity
7814;DHT22;3952;48.364;16.022;2023-02-28T00:01:27;1.30;99.90
7814;DHT22;3952;48.364;16.022;2023-02-28T00:03:54;1.30;99.90
7814;DHT22;3952;48.364;16.022;2023-02-28T00:06:21;1.30;99.90
7814;DHT22;3952;48.364;16.022;2023-02-28T00:08:51;1.30;99.90
7814;DHT22;3952;48.364;16.022;2023-02-28T00:11:18;1.30;99.90
7814;DHT22;3952;48.364;16.022;2023-02-28T00:13:46;1.30;99.90
7814;DHT22;3952;48.364;16.022;2023-02-28T00:16:17;1.30;99.90
7814;DHT22;3952;48.364;16.022;2023-02-28T00:18:45;1.30;99.90
7814;DHT22;3952;48.364;16.022;2023-02-28T00:21:14;1.30;99.90
7814;DHT22;3952;48.364;16.022;2023-02-28T00:23:41;1.30;99.90
7814;DHT22;3952;48.364;16.022;2023-02-28T00:26:11;1.30;99.90
7814;DHT22;3952;48.364;16.022;2023-02-28T00:28:38;1.30;99.90
7814;DHT22;3952;48.364;16.022;2023-02-28T00:31:05;1.30;99.90
7814;DHT22;3952;48.364;16.022;2023-02-28T00:33:32;1.20;99.90
7814;DHT22;3952;48.364;16.022;2023-02-28T00:36:04;1.20;99.90
7814;DHT22;3952;48.364;16.022;2023-02-28T00:38:32;1.20;99.90
7814;DHT22;3952;48.364;16.022;2023-02-28T00:40:59;1.20;99.90
7814;DHT22;3952;48.364;16.022;2023-02-28T00:43:32;1.10;99.90
7814;DHT22;3952;48.364;16.022;2023-02-28T00:46:00;1.10;99.90
7814;DHT22;3952;48.364;16.022;2023-02-28T00:48:28;1.10;99.90
7814;DHT22;3952;48.364;16.022;2023-02-28T00:50:55;1.00;99.90
7814;DHT22;3952;48.364;16.022;2023-02-28T00:53:22;1.00;99.90
7814;DHT22;3952;48.364;16.022;2023-02-28T00:55:50;0.90;99.90
7814;DHT22;3952;48.364;16.022;2023-02-28T00:58:17;0.90;99.90
7814;DHT22;3952;48.364;16.022;2023-02-28T01:00:46;0.90;99.90
7814;DHT22;3952;48.364;16.022;2023-02-28T01:03:15;0.90;99.90
7814;DHT22;3952;48.364;16.022;2023-02-28T01:05:42;0.80;99.90
7814;DHT22;3952;48.364;16.022;2023-02-28T01:08:09;0.80;99.90
7814;DHT22;3952;48.364;16.022;2023-02-28T01:10:37;0.80;99.90
7814;DHT22;3952;48.364;16.022;2023-02-28T01:13:04;0.80;99.90
7814;DHT22;3952;48.364;16.022;2023-02-28T01:15:31;0.80;99.90
7814;DHT22;3952;48.364;16.022;2023-02-28T01:18:00;0.80;99.90
7814;DHT22;3952;48.364;16.022;2023-02-28T01:20:27;0.90;99.90
7814;DHT22;3952;48.364;16.022;2023-02-28T01:22:54;0.90;99.90
7814;DHT22;3952;48.364;16.022;2023-02-28T01:25:22;0.90;99.90
7814;DHT22;3952;48.364;16.022;2023-02-28T01:27:49;0.90;99.90
7814;DHT22;3952;48.364;16.022;2023-02-28T01:30:16;0.80;99.90
7814;DHT22;3952;48.364;16.022;2023-02-28T01:32:43;0.80;99.90
7814;DHT22;3952;48.364;16.022;2023-02-28T01:35:12;0.70;99.90
7814;DHT22;3952;48.364;16.022;2023-02-28T01:37:39;0.70;99.90
7814;DHT22;3952;48.364;16.022;2023-02-28T01:40:08;0.60;99.90
7814;DHT22;3952;48.364;16.022;2023-02-28T01:42:35;0.60;99.90
7814;DHT22;3952;48.364;16.022;2023-02-28T01:45:16;0.50;99.90
7814;DHT22;3952;48.364;16.022;2023-02-28T01:47:45;0.50;99.90
7814;DHT22;3952;48.364;16.022;2023-02-28T01:50:18;0.40;99.90
7814;DHT22;3952;48.364;16.022;2023-02-28T01:52:47;0.40;99.90
7814;DHT22;3952;48.364;16.022;2023-02-28T01:55:17;0.40;99.90
7814;DHT22;3952;48.364;16.022;2023-02-28T01:57:49;0.40;99.90
7814;DHT22;3952;48.364;16.022;2023-02-28T02:00:20;0.40;99.90
7814;DHT22;3952;48.364;16.022;2023-02-28T02:02:51;-1.10;99.90
7814;DHT22;3952;48.364;16.022;2023-02-28T02:05:23;0.40;99.90
7814;DHT22;3952;48.364;16.022;2023-02-28T02:07:52;0.50;99.90
7814;DHT22;3952;48.364;16.022;2023-02-28T02:10:23;0.50;99.90
7814;DHT22;3952;48.364;16.022;2023-02-28T02:13:08;0.50;99.90
7814;DHT22;3952;48.364;16.022;2023-02-28T02:15:40;0.50;99.90
7814;DHT22;3952;48.364;16.022;2023-02-28T02:18:16;0.50;99.90
7814;DHT22;3952;48.364;16.022;2023-02-28T02:24:23;0.60;99.90
7814;DHT22;3952;48.364;16.022;2023-02-28T02:27:20;0.70;99.90
7814;DHT22;3952;48.364;16.022;2023-02-28T02:30:14;0.70;99.90
7814;DHT22;3952;48.364;16.022;2023-02-28T02:33:03;0.70;99.90
7814;DHT22;3952;48.364;16.022;2023-02-28T02:35:40;0.70;99.90
7814;DHT22;3952;48.364;16.022;2023-02-28T02:38:15;0.70;99.90
7814;DHT22;3952;48.364;16.022;2023-02-28T02:40:50;0.70;99.90
7814;DHT22;3952;48.364;16.022;2023-02-28T02:43:25;0.70;99.90
7814;DHT22;3952;48.364;16.022;2023-02-28T02:45:59;0.60;99.90
7814;DHT22;3952;48.364;16.022;2023-02-28T02:48:32;0.60;99.90
7814;DHT22;3952;48.364;16.022;2023-02-28T02:51:03;0.50;99.90
7814;DHT22;3952;48.364;16.022;2023-02-28T02:53:41;0.50;99.90
7814;DHT22;3952;48.364;16.022;2023-02-28T02:56:09;0.40;99.90
7814;DHT22;3952;48.364;16.022;2023-02-28T02:58:41;0.40;99.90
7814;DHT22;3952;48.364;16.022;2023-02-28T03:01:12;-0.60;99.90
7814;DHT22;3952;48.364;16.022;2023-02-28T03:03:41;0.30;99.90
7814;DHT22;3952;48.364;16.022;2023-02-28T03:06:10;0.30;99.90
7814;DHT22;3952;48.364;16.022;2023-02-28T03:08:38;-1.20;99.90
7814;DHT22;3952;48.364;16.022;2023-02-28T03:11:11;0.30;99.90
7814;DHT22;3952;48.364;16.022;2023-02-28T03:13:52;0.30;99.90
7814;DHT22;3952;48.364;16.022;2023-02-28T03:16:34;0.30;99.90
7814;DHT22;3952;48.364;16.022;2023-02-28T03:19:19;0.30;99.90
7814;DHT22;3952;48.364;16.022;2023-02-28T03:22:00;0.30;99.90
7814;DHT22;3952;48.364;16.022;2023-02-28T03:24:34;0.20;99.90
7814;DHT22;3952;48.364;16.022;2023-02-28T03:27:11;0.20;99.90
7814;DHT22;3952;48.364;16.022;2023-02-28T03:29:46;0.20;99.90
7814;DHT22;3952;48.364;16.022;2023-02-28T03:32:19;0.10;99.90
7814;DHT22;3952;48.364;16.022;2023-02-28T03:34:52;0.10;99.90
7814;DHT22;3952;48.364;16.022;2023-02-28T03:37:25;0.10;99.90
7814;DHT22;3952;48.364;16.022;2023-02-28T03:39:56;0.10;99.90
7814;DHT22;3952;48.364;16.022;2023-02-28T03:42:28;0.10;99.90
7814;DHT22;3952;48.364;16.022;2023-02-28T03:44:58;0.10;99.90
7814;DHT22;3952;48.364;16.022;2023-02-28T03:47:29;0.10;99.90
7814;DHT22;3952;48.364;16.022;2023-02-28T03:50:03;0.10;99.90
7814;DHT22;3952;48.364;16.022;2023-02-28T03:52:38;0.10;99.90
7814;DHT22;3952;48.364;16.022;2023-02-28T03:55:10;0.00;99.90
7814;DHT22;3952;48.364;16.022;2023-02-28T03:57:41;0.00;99.90
7814;DHT22;3952;48.364;16.022;2023-02-28T04:00:13;0.00;99.90
7814;DHT22;3952;48.364;16.022;2023-02-28T04:02:41;-0.10;99.90
7814;DHT22;3952;48.364;16.022;2023-02-28T04:05:09;0.00;99.90
7814;DHT22;3952;48.364;16.022;2023-02-28T04:07:38;0.00;99.90
7814;DHT22;3952;48.364;16.022;2023-02-28T04:10:06;0.00;99.90
7814;DHT22;3952;48.364;16.022;2023-02-28T04:12:33;0.00;99.90
7814;DHT22;3952;48.364;16.022;2023-02-28T04:15:00;0.00;99.90
7814;DHT22;3952;48.364;16.022;2023-02-28T04:17:28;0.20;99.90
7814;DHT22;3952;48.364;16.022;2023-02-28T04:19:55;-0.10;99.90
7814;DHT22;3952;48.364;16.022;2023-02-28T04:22:23;-0.10;99.90
7814;DHT22;3952;48.364;16.022;2023-02-28T04:24:54;-0.10;99.90
7814;DHT22;3952;48.364;16.022;2023-02-28T04:27:21;-0.20;99.90
7814;DHT22;3952;48.364;16.022;2023-02-28T04:29:48;-0.20;99.90
7814;DHT22;3952;48.364;16.022;2023-02-28T04:32:16;-0.20;99.90
7814;DHT22;3952;48.364;16.022;2023-02-28T04:34:43;-0.30;99.90
7814;DHT22;3952;48.364;16.022;2023-02-28T04:37:10;-0.30;99.90
7814;DHT22;3952;48.364;16.022;2023-02-28T04:39:37;-0.30;99.90
7814;DHT22;3952;48.364;16.022;2023-02-28T04:42:06;-0.30;99.90
7814;DHT22;3952;48.364;16.022;2023-02-28T04:44:33;-0.30;99.90
7814;DHT22;3952;48.364;16.022;2023-02-28T04:47:00;-0.40;99.90
7814;DHT22;3952;48.364;16.022;2023-02-28T04:49:28;-0.40;99.90
7814;DHT22;3952;48.364;16.022;2023-02-28T04:51:55;-0.40;99.90
7814;DHT22;3952;48.364;16.022;2023-02-28T04:54:22;-0.40;99.90
7814;DHT22;3952;48.364;16.022;2023-02-28T04:56:50;-0.40;99.90
7814;DHT22;3952;48.364;16.022;2023-02-28T04:59:18;-0.50;99.90
7814;DHT22;3952;48.364;16.022;2023-02-28T05:01:47;-0.50;99.90
7814;DHT22;3952;48.364;16.022;2023-02-28T05:04:15;-0.50;99.90
7814;DHT22;3952;48.364;16.022;2023-02-28T05:06:43;-0.50;99.90
7814;DHT22;3952;48.364;16.022;2023-02-28T05:09:11;-0.50;99.90
7814;DHT22;3952;48.364;16.022;2023-02-28T05:11:38;-0.60;99.90
7814;DHT22;3952;48.364;16.022;2023-02-28T05:14:08;-0.60;99.90
7814;DHT22;3952;48.364;16.022;2023-02-28T05:16:37;-0.60;99.90
7814;DHT22;3952;48.364;16.022;2023-02-28T05:19:05;-0.60;99.90
7814;DHT22;3952;48.364;16.022;2023-02-28T05:21:34;-0.70;99.90
7814;DHT22;3952;48.364;16.022;2023-02-28T05:24:03;-0.70;99.90
7814;DHT22;3952;48.364;16.022;2023-02-28T05:26:35;-0.60;99.90
7814;DHT22;3952;48.364;16.022;2023-02-28T05:29:02;-0.60;99.90
7814;DHT22;3952;48.364;16.022;2023-02-28T05:31:29;-0.70;99.90
7814;DHT22;3952;48.364;16.022;2023-02-28T05:33:58;-0.70;99.90
7814;DHT22;3952;48.364;16.022;2023-02-28T05:36:25;-0.80;99.90
7814;DHT22;3952;48.364;16.022;2023-02-28T05:38:52;-0.80;99.90
7814;DHT22;3952;48.364;16.022;2023-02-28T05:41:20;-0.90;99.90
7814;DHT22;3952;48.364;16.022;2023-02-28T05:43:47;-1.00;99.90
7814;DHT22;3952;48.364;16.022;2023-02-28T05:46:15;-1.00;99.90
7814;DHT22;3952;48.364;16.022;2023-02-28T05:48:45;-0.90;99.90
7814;DHT22;3952;48.364;16.022;2023-02-28T05:51:15;-1.00;99.90
7814;DHT22;3952;48.364;16.022;2023-02-28T05:53:42;-0.90;99.90
7814;DHT22;3952;48.364;16.022;2023-02-28T05:56:09;-1.00;99.90
7814;DHT22;3952;48.364;16.022;2023-02-28T05:58:36;-1.10;99.90
7814;DHT22;3952;48.364;16.022;2023-02-28T06:01:19;-1.10;99.90
7814;DHT22;3952;48.364;16.022;2023-02-28T06:03:46;-1.10;99.90
7814;DHT22;3952;48.364;16.022;2023-02-28T06:06:15;-1.10;99.90
7814;DHT22;3952;48.364;16.022;2023-02-28T06:08:42;-1.00;99.90
7814;DHT22;3952;48.364;16.022;2023-02-28T06:11:11;-1.10;99.90
7814;DHT22;3952;48.364;16.022;2023-02-28T06:13:38;-1.10;99.90
7814;DHT22;3952;48.364;16.022;2023-02-28T06:16:06;-1.10;99.90
7814;DHT22;3952;48.364;16.022;2023-02-28T06:18:34;-1.10;99.90
7814;DHT22;3952;48.364;16.022;2023-02-28T06:21:01;-1.10;99.90
7814;DHT22;3952;48.364;16.022;2023-02-28T06:23:30;-1.10;99.90
7814;DHT22;3952;48.364;16.022;2023-02-28T06:25:57;-1.10;99.90
7814;DHT22;3952;48.364;16.022;2023-02-28T06:28:24;-1.10;99.90
7814;DHT22;3952;48.364;16.022;2023-02-28T06:30:52;-1.10;99.90
7814;DHT22;3952;48.364;16.022;2023-02-28T06:33:19;-1.00;99.90
7814;DHT22;3952;48.364;16.022;2023-02-28T06:35:47;-1.00;99.90
7814;DHT22;3952;48.364;16.022;2023-02-28T06:38:16;-0.90;99.90
7814;DHT22;3952;48.364;16.022;2023-02-28T06:40:53;-0.80;99.90
7814;DHT22;3952;48.364;16.022;2023-02-28T06:43:21;-0.80;99.90
7814;DHT22;3952;48.364;16.022;2023-02-28T06:45:48;-0.80;99.90
7814;DHT22;3952;48.364;16.022;2023-02-28T06:48:15;-0.70;99.90
7814;DHT22;3952;48.364;16.022;2023-02-28T06:50:42;-0.60;99.90
7814;DHT22;3952;48.364;16.022;2023-02-28T06:53:09;-0.60;99.90
7814;DHT22;3952;48.364;16.022;2023-02-28T06:55:37;-0.50;99.90
7814;DHT22;3952;48.364;16.022;2023-02-28T06:58:06;-0.40;99.90
7814;DHT22;3952;48.364;16.022;2023-02-28T07:00:41;-0.30;99.90
7814;DHT22;3952;48.364;16.022;2023-02-28T07:03:10;-0.20;99.90
7814;DHT22;3952;48.364;16.022;2023-02-28T07:05:38;0.00;99.90
7814;DHT22;3952;48.364;16.022;2023-02-28T07:08:06;0.60;99.90
7814;DHT22;3952;48.364;16.022;2023-02-28T07:10:34;1.20;99.90
7814;DHT22;3952;48.364;16.022;2023-02-28T07:13:05;1.80;99.90
7814;DHT22;3952;48.364;16.022;2023-02-28T07:15:33;2.50;99.90
7814;DHT22;3952;48.364;16.022;2023-02-28T07:18:00;3.20;99.90
7814;DHT22;3952;48.364;16.022;2023-02-28T07:20:28;3.90;99.90
7814;DHT22;3952;48.364;16.022;2023-02-28T07:22:55;4.40;99.90
7814;DHT22;3952;48.364;16.022;2023-02-28T07:25:22;4.90;99.90
7814;DHT22;3952;48.364;16.022;2023-02-28T07:27:50;5.30;99.90
7814;DHT22;3952;48.364;16.022;2023-02-28T07:30:19;5.80;99.90
7814;DHT22;3952;48.364;16.022;2023-02-28T07:32:46;6.30;99.90
7814;DHT22;3952;48.364;16.022;2023-02-28T07:35:14;6.70;99.90
7814;DHT22;3952;48.364;16.022;2023-02-28T07:37:42;7.10;99.90
7814;DHT22;3952;48.364;16.022;2023-02-28T07:40:11;7.60;99.90
7814;DHT22;3952;48.364;16.022;2023-02-28T07:42:39;8.10;99.90
7814;DHT22;3952;48.364;16.022;2023-02-28T07:45:08;8.30;99.90
7814;DHT22;3952;48.364;16.022;2023-02-28T07:47:38;8.20;99.90
7814;DHT22;3952;48.364;16.022;2023-02-28T07:50:07;7.30;99.90
7814;DHT22;3952;48.364;16.022;2023-02-28T07:52:35;6.60;99.90
7814;DHT22;3952;48.364;16.022;2023-02-28T07:55:03;6.10;99.90
7814;DHT22;3952;48.364;16.022;2023-02-28T07:57:31;5.80;99.90
7814;DHT22;3952;48.364;16.022;2023-02-28T07:59:58;5.50;99.90
7814;DHT22;3952;48.364;16.022;2023-02-28T08:02:26;5.10;99.90
7814;DHT22;3952;48.364;16.022;2023-02-28T08:04:55;4.70;99.90
7814;DHT22;3952;48.364;16.022;2023-02-28T08:07:22;4.50;99.90
7814;DHT22;3952;48.364;16.022;2023-02-28T08:09:49;4.40;99.90
7814;DHT22;3952;48.364;16.022;2023-02-28T08:12:16;4.40;99.90
7814;DHT22;3952;48.364;16.022;2023-02-28T08:14:43;4.60;99.90
7814;DHT22;3952;48.364;16.022;2023-02-28T08:17:11;4.80;99.90
7814;DHT22;3952;48.364;16.022;2023-02-28T08:19:38;4.90;99.90
7814;DHT22;3952;48.364;16.022;2023-02-28T08:22:07;4.90;99.90
7814;DHT22;3952;48.364;16.022;2023-02-28T08:24:34;4.70;99.90
7814;DHT22;3952;48.364;16.022;2023-02-28T08:27:02;4.60;99.90
7814;DHT22;3952;48.364;16.022;2023-02-28T08:29:29;4.30;99.90
7814;DHT22;3952;48.364;16.022;2023-02-28T08:31:56;4.30;99.90
7814;DHT22;3952;48.364;16.022;2023-02-28T08:34:24;4.30;99.90
7814;DHT22;3952;48.364;16.022;2023-02-28T08:36:51;4.20;99.90
7814;DHT22;3952;48.364;16.022;2023-02-28T08:39:20;4.30;99.90
7814;DHT22;3952;48.364;16.022;2023-02-28T08:41:47;4.40;99.90
7814;DHT22;3952;48.364;16.022;2023-02-28T08:44:14;4.40;99.90
7814;DHT22;3952;48.364;16.022;2023-02-28T08:46:42;4.40;99.90
7814;DHT22;3952;48.364;16.022;2023-02-28T08:49:10;4.40;99.90
7814;DHT22;3952;48.364;16.022;2023-02-28T08:51:38;4.40;99.90
7814;DHT22;3952;48.364;16.022;2023-02-28T08:54:05;4.10;99.90
7814;DHT22;3952;48.364;16.022;2023-02-28T08:56:34;3.80;99.90
7814;DHT22;3952;48.364;16.022;2023-02-28T08:59:01;3.60;99.90
7814;DHT22;3952;48.364;16.022;2023-02-28T09:01:29;3.40;99.90
7814;DHT22;3952;48.364;16.022;2023-02-28T09:03:57;3.50;99.90
7814;DHT22;3952;48.364;16.022;2023-02-28T09:06:26;3.80;99.90
7814;DHT22;3952;48.364;16.022;2023-02-28T09:08:56;3.90;99.90
7814;DHT22;3952;48.364;16.022;2023-02-28T09:11:25;3.90;99.90
7814;DHT22;3952;48.364;16.022;2023-02-28T09:13:54;3.90;99.90
7814;DHT22;3952;48.364;16.022;2023-02-28T09:16:22;3.80;99.90
7814;DHT22;3952;48.364;16.022;2023-02-28T09:18:49;3.80;99.90
7814;DHT22;3952;48.364;16.022;2023-02-28T09:21:18;3.70;99.90
7814;DHT22;3952;48.364;16.022;2023-02-28T09:23:47;3.90;99.90
7814;DHT22;3952;48.364;16.022;2023-02-28T09:26:16;4.30;99.90
7814;DHT22;3952;48.364;16.022;2023-02-28T09:28:43;4.90;99.90
7814;DHT22;3952;48.364;16.022;2023-02-28T09:31:14;5.40;99.90
7814;DHT22;3952;48.364;16.022;2023-02-28T09:33:42;5.80;99.90
7814;DHT22;3952;48.364;16.022;2023-02-28T09:36:09;5.80;99.90
7814;DHT22;3952;48.364;16.022;2023-02-28T09:38:36;5.70;99.90
7814;DHT22;3952;48.364;16.022;2023-02-28T09:41:11;5.70;99.90
7814;DHT22;3952;48.364;16.022;2023-02-28T09:43:43;5.70;99.90
7814;DHT22;3952;48.364;16.022;2023-02-28T09:46:21;6.10;99.90
7814;DHT22;3952;48.364;16.022;2023-02-28T09:48:52;6.30;99.90
7814;DHT22;3952;48.364;16.022;2023-02-28T09:51:33;6.30;99.90
7814;DHT22;3952;48.364;16.022;2023-02-28T09:54:04;6.10;99.90
7814;DHT22;3952;48.364;16.022;2023-02-28T09:56:38;6.00;99.90
7814;DHT22;3952;48.364;16.022;2023-02-28T09:59:13;5.70;99.90
7814;DHT22;3952;48.364;16.022;2023-02-28T10:01:49;5.60;99.90
7814;DHT22;3952;48.364;16.022;2023-02-28T10:04:35;5.60;99.90
7814;DHT22;3952;48.364;16.022;2023-02-28T10:07:10;5.60;99.90
7814;DHT22;3952;48.364;16.022;2023-02-28T10:09:45;5.50;99.90
7814;DHT22;3952;48.364;16.022;2023-02-28T10:12:14;5.50;99.90
7814;DHT22;3952;48.364;16.022;2023-02-28T10:14:45;5.50;99.90
7814;DHT22;3952;48.364;16.022;2023-02-28T10:17:17;5.50;99.90
7814;DHT22;3952;48.364;16.022;2023-02-28T10:19:58;5.40;99.90
7814;DHT22;3952;48.364;16.022;2023-02-28T10:22:49;5.30;99.90
7814;DHT22;3952;48.364;16.022;2023-02-28T10:25:20;5.40;99.90
7814;DHT22;3952;48.364;16.022;2023-02-28T10:27:48;5.30;99.90
7814;DHT22;3952;48.364;16.022;2023-02-28T10:30:16;5.30;99.90
7814;DHT22;3952;48.364;16.022;2023-02-28T10:32:49;5.50;99.90
7814;DHT22;3952;48.364;16.022;2023-02-28T10:35:20;5.60;99.90
7814;DHT22;3952;48.364;16.022;2023-02-28T10:37:50;5.60;99.90
7814;DHT22;3952;48.364;16.022;2023-02-28T10:40:30;5.70;99.90
7814;DHT22;3952;48.364;16.022;2023-02-28T10:42:59;5.70;99.90
7814;DHT22;3952;48.364;16.022;2023-02-28T10:45:29;6.00;99.90
7814;DHT22;3952;48.364;16.022;2023-02-28T10:48:01;6.30;99.90
7814;DHT22;3952;48.364;16.022;2023-02-28T10:50:37;6.50;99.90
7814;DHT22;3952;48.364;16.022;2023-02-28T10:53:21;6.60;99.90
7814;DHT22;3952;48.364;16.022;2023-02-28T10:55:56;6.80;99.90
7814;DHT22;3952;48.364;16.022;2023-02-28T10:58:26;7.10;99.90
7814;DHT22;3952;48.364;16.022;2023-02-28T11:00:54;7.20;99.90
7814;DHT22;3952;48.364;16.022;2023-02-28T11:03:29;7.20;99.90
7814;DHT22;3952;48.364;16.022;2023-02-28T11:05:57;7.10;99.90
7814;DHT22;3952;48.364;16.022;2023-02-28T11:08:24;7.10;99.90
7814;DHT22;3952;48.364;16.022;2023-02-28T11:10:55;7.10;99.90
7814;DHT22;3952;48.364;16.022;2023-02-28T11:13:27;7.00;99.90
7814;DHT22;3952;48.364;16.022;2023-02-28T11:15:56;6.90;99.90
7814;DHT22;3952;48.364;16.022;2023-02-28T11:18:29;6.90;99.90
7814;DHT22;3952;48.364;16.022;2023-02-28T11:20:59;6.90;99.90
7814;DHT22;3952;48.364;16.022;2023-02-28T11:23:29;6.90;99.90
7814;DHT22;3952;48.364;16.022;2023-02-28T11:26:00;6.80;99.90
7814;DHT22;3952;48.364;16.022;2023-02-28T11:28:29;6.80;99.90
7814;DHT22;3952;48.364;16.022;2023-02-28T11:31:04;6.80;99.90
7814;DHT22;3952;48.364;16.022;2023-02-28T11:33:41;6.80;99.90
7814;DHT22;3952;48.364;16.022;2023-02-28T11:36:12;6.70;99.90
7814;DHT22;3952;48.364;16.022;2023-02-28T11:38:41;6.60;99.90
7814;DHT22;3952;48.364;16.022;2023-02-28T11:41:33;6.50;99.90
7814;DHT22;3952;48.364;16.022;2023-02-28T11:44:16;6.30;99.90
7814;DHT22;3952;48.364;16.022;2023-02-28T11:46:49;6.10;99.90
7814;DHT22;3952;48.364;16.022;2023-02-28T11:49:32;6.00;99.90
7814;DHT22;3952;48.364;16.022;2023-02-28T11:52:10;5.90;99.90
7814;DHT22;3952;48.364;16.022;2023-02-28T11:55:09;6.00;99.90
7814;DHT22;3952;48.364;16.022;2023-02-28T11:57:57;6.00;99.90
7814;DHT22;3952;48.364;16.022;2023-02-28T12:00:37;6.10;99.90
7814;DHT22;3952;48.364;16.022;2023-02-28T12:03:21;6.00;99.90
7814;DHT22;3952;48.364;16.022;2023-02-28T12:06:01;6.00;99.90
7814;DHT22;3952;48.364;16.022;2023-02-28T12:08:51;6.00;99.90
7814;DHT22;3952;48.364;16.022;2023-02-28T12:11:29;5.90;99.90
7814;DHT22;3952;48.364;16.022;2023-02-28T12:14:06;5.80;99.90
7814;DHT22;3952;48.364;16.022;2023-02-28T12:16:48;5.70;99.90
7814;DHT22;3952;48.364;16.022;2023-02-28T12:19:21;5.80;99.90
7814;DHT22;3952;48.364;16.022;2023-02-28T12:22:23;5.80;99.90
7814;DHT22;3952;48.364;16.022;2023-02-28T12:25:33;5.70;99.90
7814;DHT22;3952;48.364;16.022;2023-02-28T12:28:04;5.60;99.90
7814;DHT22;3952;48.364;16.022;2023-02-28T12:30:37;5.60;99.90
7814;DHT22;3952;48.364;16.022;2023-02-28T12:33:09;5.60;99.90
7814;DHT22;3952;48.364;16.022;2023-02-28T12:35:44;5.60;99.90
7814;DHT22;3952;48.364;16.022;2023-02-28T12:38:17;5.70;99.90
7814;DHT22;3952;48.364;16.022;2023-02-28T12:40:50;5.70;99.90
7814;DHT22;3952;48.364;16.022;2023-02-28T12:43:21;5.70;99.90
7814;DHT22;3952;48.364;16.022;2023-02-28T12:45:57;5.60;99.90
7814;DHT22;3952;48.364;16.022;2023-02-28T12:48:31;5.60;99.90
7814;DHT22;3952;48.364;16.022;2023-02-28T12:50:59;5.60;99.90
7814;DHT22;3952;48.364;16.022;2023-02-28T12:53:34;5.60;99.90
7814;DHT22;3952;48.364;16.022;2023-02-28T12:56:12;5.70;99.90
7814;DHT22;3952;48.364;16.022;2023-02-28T12:58:48;5.70;99.90
7814;DHT22;3952;48.364;16.022;2023-02-28T13:01:38;5.70;99.90
7814;DHT22;3952;48.364;16.022;2023-02-28T13:10:14;5.80;99.90
7814;DHT22;3952;48.364;16.022;2023-02-28T13:12:49;5.80;99.90
7814;DHT22;3952;48.364;16.022;2023-02-28T13:15:19;5.80;99.90
7814;DHT22;3952;48.364;16.022;2023-02-28T13:17:51;5.80;99.90
7814;DHT22;3952;48.364;16.022;2023-02-28T13:20:20;5.80;99.90
7814;DHT22;3952;48.364;16.022;2023-02-28T13:22:51;5.90;99.90
7814;DHT22;3952;48.364;16.022;2023-02-28T13:25:51;5.90;99.90
7814;DHT22;3952;48.364;16.022;2023-02-28T13:31:32;5.90;99.90
7814;DHT22;3952;48.364;16.022;2023-02-28T13:34:14;5.90;99.90
7814;DHT22;3952;48.364;16.022;2023-02-28T13:36:42;5.90;99.90
7814;DHT22;3952;48.364;16.022;2023-02-28T13:39:46;5.80;99.90
7814;DHT22;3952;48.364;16.022;2023-02-28T13:42:33;5.80;99.90
7814;DHT22;3952;48.364;16.022;2023-02-28T13:45:23;5.80;99.90
7814;DHT22;3952;48.364;16.022;2023-02-28T13:47:59;6.00;99.90
7814;DHT22;3952;48.364;16.022;2023-02-28T13:50:31;6.10;99.90
7814;DHT22;3952;48.364;16.022;2023-02-28T13:56:05;6.10;99.90
7814;DHT22;3952;48.364;16.022;2023-02-28T13:58:44;6.20;99.90
7814;DHT22;3952;48.364;16.022;2023-02-28T14:01:31;6.30;99.90
7814;DHT22;3952;48.364;16.022;2023-02-28T14:04:21;6.30;99.90
7814;DHT22;3952;48.364;16.022;2023-02-28T14:06:54;6.20;99.90
7814;DHT22;3952;48.364;16.022;2023-02-28T14:09:25;6.20;99.90
7814;DHT22;3952;48.364;16.022;2023-02-28T14:11:54;6.20;99.90
7814;DHT22;3952;48.364;16.022;2023-02-28T14:14:54;6.20;99.90
7814;DHT22;3952;48.364;16.022;2023-02-28T14:17:24;6.10;99.90
7814;DHT22;3952;48.364;16.022;2023-02-28T14:19:52;6.00;99.90
7814;DHT22;3952;48.364;16.022;2023-02-28T14:22:39;6.00;99.90
7814;DHT22;3952;48.364;16.022;2023-02-28T14:25:18;6.00;99.90
7814;DHT22;3952;48.364;16.022;2023-02-28T14:27:56;5.90;99.90
7814;DHT22;3952;48.364;16.022;2023-02-28T14:30:52;6.00;99.90
7814;DHT22;3952;48.364;16.022;2023-02-28T14:33:31;6.10;99.90
7814;DHT22;3952;48.364;16.022;2023-02-28T14:36:12;6.20;99.90
7814;DHT22;3952;48.364;16.022;2023-02-28T14:38:44;6.30;99.90
7814;DHT22;3952;48.364;16.022;2023-02-28T14:41:18;6.40;99.90
7814;DHT22;3952;48.364;16.022;2023-02-28T14:43:54;6.40;99.90
7814;DHT22;3952;48.364;16.022;2023-02-28T14:46:25;6.50;99.90
7814;DHT22;3952;48.364;16.022;2023-02-28T14:48:54;6.60;99.90
7814;DHT22;3952;48.364;16.022;2023-02-28T14:51:23;6.60;99.90
7814;DHT22;3952;48.364;16.022;2023-02-28T14:53:56;6.50;99.90
7814;DHT22;3952;48.364;16.022;2023-02-28T14:56:35;6.50;99.90
7814;DHT22;3952;48.364;16.022;2023-02-28T14:59:04;6.50;99.90
7814;DHT22;3952;48.364;16.022;2023-02-28T15:01:34;6.40;99.90
7814;DHT22;3952;48.364;16.022;2023-02-28T15:04:04;6.40;99.90
7814;DHT22;3952;48.364;16.022;2023-02-28T15:06:32;6.40;99.90
7814;DHT22;3952;48.364;16.022;2023-02-28T15:09:13;6.30;99.90
7814;DHT22;3952;48.364;16.022;2023-02-28T15:11:41;6.30;99.90
7814;DHT22;3952;48.364;16.022;2023-02-28T15:14:15;6.30;99.90
7814;DHT22;3952;48.364;16.022;2023-02-28T15:16:48;6.30;99.90
7814;DHT22;3952;48.364;16.022;2023-02-28T15:19:20;6.20;99.90
7814;DHT22;3952;48.364;16.022;2023-02-28T15:21:52;6.10;99.90
7814;DHT22;3952;48.364;16.022;2023-02-28T15:24:21;6.00;99.90
7814;DHT22;3952;48.364;16.022;2023-02-28T15:26:54;5.90;99.90
7814;DHT22;3952;48.364;16.022;2023-02-28T15:29:25;5.90;99.90
7814;DHT22;3952;48.364;16.022;2023-02-28T15:32:01;5.90;99.90
7814;DHT22;3952;48.364;16.022;2023-02-28T15:34:34;5.80;99.90
7814;DHT22;3952;48.364;16.022;2023-02-28T15:37:02;5.80;99.90
7814;DHT22;3952;48.364;16.022;2023-02-28T15:39:42;5.80;99.90
7814;DHT22;3952;48.364;16.022;2023-02-28T15:42:12;5.80;99.90
7814;DHT22;3952;48.364;16.022;2023-02-28T15:44:39;5.70;99.90
7814;DHT22;3952;48.364;16.022;2023-02-28T15:47:17;5.70;99.90
7814;DHT22;3952;48.364;16.022;2023-02-28T15:49:49;5.70;99.90
7814;DHT22;3952;48.364;16.022;2023-02-28T15:52:19;5.70;99.90
7814;DHT22;3952;48.364;16.022;2023-02-28T15:54:47;5.70;99.90
7814;DHT22;3952;48.364;16.022;2023-02-28T15:57:18;5.70;99.90
7814;DHT22;3952;48.364;16.022;2023-02-28T15:59:51;5.70;99.90
7814;DHT22;3952;48.364;16.022;2023-02-28T16:02:22;5.60;99.90
7814;DHT22;3952;48.364;16.022;2023-02-28T16:05:02;5.60;99.90
7814;DHT22;3952;48.364;16.022;2023-02-28T16:07:40;5.60;99.90
7814;DHT22;3952;48.364;16.022;2023-02-28T16:10:10;5.60;99.90
7814;DHT22;3952;48.364;16.022;2023-02-28T16:12:40;5.50;99.90
7814;DHT22;3952;48.364;16.022;2023-02-28T16:15:18;5.50;99.90
7814;DHT22;3952;48.364;16.022;2023-02-28T16:17:47;5.50;99.90
7814;DHT22;3952;48.364;16.022;2023-02-28T16:20:16;5.40;99.90
7814;DHT22;3952;48.364;16.022;2023-02-28T16:22:44;5.40;99.90
7814;DHT22;3952;48.364;16.022;2023-02-28T16:25:15;5.40;99.90
7814;DHT22;3952;48.364;16.022;2023-02-28T16:27:44;5.30;99.90
7814;DHT22;3952;48.364;16.022;2023-02-28T16:30:19;5.20;99.90
7814;DHT22;3952;48.364;16.022;2023-02-28T16:32:49;5.10;99.90
7814;DHT22;3952;48.364;16.022;2023-02-28T16:35:16;5.00;99.90
7814;DHT22;3952;48.364;16.022;2023-02-28T16:37:44;5.00;99.90
7814;DHT22;3952;48.364;16.022;2023-02-28T16:40:14;5.00;99.90
7814;DHT22;3952;48.364;16.022;2023-02-28T16:42:43;4.90;99.90
7814;DHT22;3952;48.364;16.022;2023-02-28T16:45:16;4.80;99.90